sensor_id;sensor_type;location;lat;lon;timestamp;pressure;altitude;pressure_sealevel;temperature;humidity
43878;BME280;29815;48.184;11.268;2023-04-08T00:01:09;95643.44;;;3.36;100.00
43878;BME280;29815;48.184;11.268;2023-04-08T00:03:39;95643.44;;;3.36;100.00
43878;BME280;29815;48.184;11.268;2023-04-08T00:06:09;95648.78;;;3.36;100.00
43878;BME280;29815;48.184;11.268;2023-04-08T00:08:38;95642.84;;;3.34;100.00
43878;BME280;29815;48.184;11.268;2023-04-08T00:11:08;95658.91;;;3.46;100.00
43878;BME280;29815;48.184;11.268;2023-04-08T00:13:38;95655.44;;;3.45;100.00
43878;BME280;29815;48.184;11.268;2023-04-08T00:16:08;95653.22;;;3.42;100.00
43878;BME280;29815;48.184;11.268;2023-04-08T00:18:37;95653.56;;;3.46;100.00
43878;BME280;29815;48.184;11.268;2023-04-08T00:21:08;95661.41;;;3.40;100.00
43878;BME280;29815;48.184;11.268;2023-04-08T00:23:37;95657.34;;;3.38;100.00
43878;BME280;29815;48.184;11.268;2023-04-08T00:26:07;95655.94;;;3.35;100.00
43878;BME280;29815;48.184;11.268;2023-04-08T00:28:38;95653.88;;;3.37;100.00
43878;BME280;29815;48.184;11.268;2023-04-08T00:31:08;95651.13;;;3.44;100.00
43878;BME280;29815;48.184;11.268;2023-04-08T00:33:38;95654.91;;;3.36;100.00
43878;BME280;29815;48.184;11.268;2023-04-08T00:36:07;95654.38;;;3.46;100.00
43878;BME280;29815;48.184;11.268;2023-04-08T00:38:36;95651.94;;;3.45;100.00
43878;BME280;29815;48.184;11.268;2023-04-08T00:41:06;95657.78;;;3.53;100.00
43878;BME280;29815;48.184;11.268;2023-04-08T00:43:35;95658.81;;;3.52;100.00
43878;BME280;29815;48.184;11.268;2023-04-08T00:46:06;95654.63;;;3.45;100.00
43878;BME280;29815;48.184;11.268;2023-04-08T00:48:37;95659.84;;;3.33;100.00
43878;BME280;29815;48.184;11.268;2023-04-08T00:51:07;95655.44;;;3.27;100.00
43878;BME280;29815;48.184;11.268;2023-04-08T00:53:37;95666.53;;;3.24;100.00
43878;BME280;29815;48.184;11.268;2023-04-08T00:56:06;95666.34;;;3.19;100.00
43878;BME280;29815;48.184;11.268;2023-04-08T00:58:36;95662.28;;;3.16;100.00
43878;BME280;29815;48.184;11.268;2023-04-08T01:01:13;95663.69;;;3.19;100.00
43878;BME280;29815;48.184;11.268;2023-04-08T01:03:54;95664.34;;;3.14;100.00
43878;BME280;29815;48.184;11.268;2023-04-08T01:06:34;95663.53;;;3.14;100.00
43878;BME280;29815;48.184;11.268;2023-04-08T01:09:09;95666.81;;;3.16;100.00
43878;BME280;29815;48.184;11.268;2023-04-08T01:11:43;95661.53;;;3.09;100.00
43878;BME280;29815;48.184;11.268;2023-04-08T01:14:20;95658.13;;;3.02;100.00
43878;BME280;29815;48.184;11.268;2023-04-08T01:16:54;95651.50;;;2.93;100.00
43878;BME280;29815;48.184;11.268;2023-04-08T01:19:29;95653.41;;;3.04;100.00
43878;BME280;29815;48.184;11.268;2023-04-08T01:22:07;95658.44;;;3.12;100.00
43878;BME280;29815;48.184;11.268;2023-04-08T01:24:43;95648.41;;;3.14;100.00
43878;BME280;29815;48.184;11.268;2023-04-08T01:27:16;95655.72;;;3.00;100.00
43878;BME280;29815;48.184;11.268;2023-04-08T01:29:46;95656.97;;;2.98;100.00
43878;BME280;29815;48.184;11.268;2023-04-08T01:32:17;95654.22;;;3.04;100.00
43878;BME280;29815;48.184;11.268;2023-04-08T01:34:48;95653.41;;;3.04;100.00
43878;BME280;29815;48.184;11.268;2023-04-08T01:37:19;95650.16;;;3.02;100.00
43878;BME280;29815;48.184;11.268;2023-04-08T01:39:50;95654.66;;;3.01;100.00
43878;BME280;29815;48.184;11.268;2023-04-08T01:42:23;95655.56;;;2.95;100.00
43878;BME280;29815;48.184;11.268;2023-04-08T01:44:56;95648.63;;;2.94;100.00
43878;BME280;29815;48.184;11.268;2023-04-08T01:47:28;95648.03;;;2.92;100.00
43878;BME280;29815;48.184;11.268;2023-04-08T01:49:59;95654.00;;;2.88;100.00
43878;BME280;29815;48.184;11.268;2023-04-08T01:52:29;95649.66;;;2.93;100.00
43878;BME280;29815;48.184;11.268;2023-04-08T01:55:01;95650.91;;;2.91;100.00
43878;BME280;29815;48.184;11.268;2023-04-08T01:57:35;95649.66;;;2.93;100.00
43878;BME280;29815;48.184;11.268;2023-04-08T02:00:09;95652.38;;;2.87;100.00
43878;BME280;29815;48.184;11.268;2023-04-08T02:02:47;95647.25;;;2.85;100.00
43878;BME280;29815;48.184;11.268;2023-04-08T02:05:19;95646.88;;;2.82;100.00
43878;BME280;29815;48.184;11.268;2023-04-08T02:07:49;95652.41;;;2.80;100.00
43878;BME280;29815;48.184;11.268;2023-04-08T02:10:20;95653.44;;;2.79;100.00
43878;BME280;29815;48.184;11.268;2023-04-08T02:12:51;95659.28;;;2.69;100.00
43878;BME280;29815;48.184;11.268;2023-04-08T02:15:21;95651.34;;;2.63;100.00
43878;BME280;29815;48.184;11.268;2023-04-08T02:17:54;95649.56;;;2.57;100.00
43878;BME280;29815;48.184;11.268;2023-04-08T02:20:33;95657.91;;;2.60;100.00
43878;BME280;29815;48.184;11.268;2023-04-08T02:23:11;95658.28;;;2.64;100.00
43878;BME280;29815;48.184;11.268;2023-04-08T02:25:44;95660.56;;;2.60;100.00
43878;BME280;29815;48.184;11.268;2023-04-08T02:28:17;95657.09;;;2.60;100.00
43878;BME280;29815;48.184;11.268;2023-04-08T02:30:50;95658.09;;;2.65;100.00
43878;BME280;29815;48.184;11.268;2023-04-08T02:33:22;95665.25;;;2.65;100.00
43878;BME280;29815;48.184;11.268;2023-04-08T02:35:54;95662.59;;;2.65;100.00
43878;BME280;29815;48.184;11.268;2023-04-08T02:38:24;95663.63;;;2.64;100.00
43878;BME280;29815;48.184;11.268;2023-04-08T02:40:57;95660.16;;;2.63;100.00
43878;BME280;29815;48.184;11.268;2023-04-08T02:43:28;95668.31;;;2.62;100.00
43878;BME280;29815;48.184;11.268;2023-04-08T02:46:00;95664.66;;;2.63;100.00
43878;BME280;29815;48.184;11.268;2023-04-08T02:48:31;95662.41;;;2.60;100.00
43878;BME280;29815;48.184;11.268;2023-04-08T02:51:01;95663.88;;;2.56;100.00
43878;BME280;29815;48.184;11.268;2023-04-08T02:53:30;95660.41;;;2.55;100.00
43878;BME280;29815;48.184;11.268;2023-04-08T02:56:00;95665.06;;;2.60;100.00
43878;BME280;29815;48.184;11.268;2023-04-08T02:58:30;95663.78;;;2.69;100.00
43878;BME280;29815;48.184;11.268;2023-04-08T03:01:00;95661.56;;;2.66;100.00
43878;BME280;29815;48.184;11.268;2023-04-08T03:03:30;95657.28;;;2.65;100.00
43878;BME280;29815;48.184;11.268;2023-04-08T03:05:59;95660.34;;;2.62;100.00
43878;BME280;29815;48.184;11.268;2023-04-08T03:08:29;95657.28;;;2.65;100.00
43878;BME280;29815;48.184;11.268;2023-04-08T03:10:59;95659.72;;;2.66;100.00
43878;BME280;29815;48.184;11.268;2023-04-08T03:13:30;95656.09;;;2.79;100.00
43878;BME280;29815;48.184;11.268;2023-04-08T03:16:00;95658.88;;;2.91;100.00
43878;BME280;29815;48.184;11.268;2023-04-08T03:18:29;95657.41;;;2.95;100.00
43878;BME280;29815;48.184;11.268;2023-04-08T03:20:59;95659.41;;;2.99;100.00
43878;BME280;29815;48.184;11.268;2023-04-08T03:23:30;95662.78;;;3.06;100.00
43878;BME280;29815;48.184;11.268;2023-04-08T03:25:59;95661.09;;;3.12;100.00
43878;BME280;29815;48.184;11.268;2023-04-08T03:28:30;95664.56;;;3.13;100.00
43878;BME280;29815;48.184;11.268;2023-04-08T03:31:01;95669.69;;;3.14;100.00
43878;BME280;29815;48.184;11.268;2023-04-08T03:33:31;95663.69;;;3.19;100.00
43878;BME280;29815;48.184;11.268;2023-04-08T03:36:00;95662.00;;;3.24;100.00
43878;BME280;29815;48.184;11.268;2023-04-08T03:38:30;95663.69;;;3.19;100.00
43878;BME280;29815;48.184;11.268;2023-04-08T03:41:00;95663.09;;;3.17;100.00
43878;BME280;29815;48.184;11.268;2023-04-08T03:43:30;95662.94;;;3.12;100.00
43878;BME280;29815;48.184;11.268;2023-04-08T03:46:00;95675.22;;;3.13;100.00
43878;BME280;29815;48.184;11.268;2023-04-08T03:48:30;95678.25;;;3.16;100.00
43878;BME280;29815;48.184;11.268;2023-04-08T03:51:00;95671.97;;;3.11;100.00
43878;BME280;29815;48.184;11.268;2023-04-08T03:53:29;95673.81;;;3.10;100.00
43878;BME280;29815;48.184;11.268;2023-04-08T03:55:59;95671.81;;;3.05;100.00
43878;BME280;29815;48.184;11.268;2023-04-08T03:58:31;95685.19;;;2.99;100.00
43878;BME280;29815;48.184;11.268;2023-04-08T04:01:00;95677.78;;;3.01;100.00
43878;BME280;29815;48.184;11.268;2023-04-08T04:03:30;95681.03;;;3.03;100.00
43878;BME280;29815;48.184;11.268;2023-04-08T04:05:59;95684.88;;;3.07;100.00
43878;BME280;29815;48.184;11.268;2023-04-08T04:08:29;95684.00;;;3.13;100.00
43878;BME280;29815;48.184;11.268;2023-04-08T04:10:59;95685.13;;;3.24;100.00
43878;BME280;29815;48.184;11.268;2023-04-08T04:13:28;95690.72;;;3.34;100.00
43878;BME280;29815;48.184;11.268;2023-04-08T04:15:59;95691.34;;;3.36;100.00
43878;BME280;29815;48.184;11.268;2023-04-08T04:18:28;95698.22;;;3.44;100.00
43878;BME280;29815;48.184;11.268;2023-04-08T04:20:58;95702.06;;;3.48;100.00
43878;BME280;29815;48.184;11.268;2023-04-08T04:23:27;95699.78;;;3.51;100.00
43878;BME280;29815;48.184;11.268;2023-04-08T04:25:57;95703.38;;;3.57;100.00
43878;BME280;29815;48.184;11.268;2023-04-08T04:28:26;95698.63;;;3.59;100.00
43878;BME280;29815;48.184;11.268;2023-04-08T04:30:56;95701.47;;;3.64;100.00
43878;BME280;29815;48.184;11.268;2023-04-08T04:33:27;95709.59;;;3.69;100.00
43878;BME280;29815;48.184;11.268;2023-04-08T04:35:56;95706.19;;;3.80;100.00
43878;BME280;29815;48.184;11.268;2023-04-08T04:38:26;95701.72;;;3.92;100.00
43878;BME280;29815;48.184;11.268;2023-04-08T04:40:55;95699.94;;;4.04;100.00
43878;BME280;29815;48.184;11.268;2023-04-08T04:43:25;95714.78;;;4.12;100.00
43878;BME280;29815;48.184;11.268;2023-04-08T04:45:55;95706.47;;;4.20;100.00
43878;BME280;29815;48.184;11.268;2023-04-08T04:48:26;95708.38;;;4.31;100.00
43878;BME280;29815;48.184;11.268;2023-04-08T04:50:56;95714.88;;;4.35;100.00
43878;BME280;29815;48.184;11.268;2023-04-08T04:53:26;95717.66;;;4.40;100.00
43878;BME280;29815;48.184;11.268;2023-04-08T04:55:55;95714.41;;;4.38;100.00
43878;BME280;29815;48.184;11.268;2023-04-08T04:58:25;95712.09;;;4.42;100.00
43878;BME280;29815;48.184;11.268;2023-04-08T05:00:55;95719.28;;;4.41;100.00
43878;BME280;29815;48.184;11.268;2023-04-08T05:03:25;95715.56;;;4.42;100.00
43878;BME280;29815;48.184;11.268;2023-04-08T05:05:55;95712.47;;;4.46;100.00
43878;BME280;29815;48.184;11.268;2023-04-08T05:08:24;95714.00;;;4.53;100.00
43878;BME280;29815;48.184;11.268;2023-04-08T05:10:55;95707.63;;;4.54;100.00
43878;BME280;29815;48.184;11.268;2023-04-08T05:13:26;95719.47;;;4.58;100.00
43878;BME280;29815;48.184;11.268;2023-04-08T05:15:56;95706.94;;;4.59;100.00
43878;BME280;29815;48.184;11.268;2023-04-08T05:18:26;95708.81;;;4.58;100.00
43878;BME280;29815;48.184;11.268;2023-04-08T05:20:56;95708.22;;;4.56;100.00
43878;BME280;29815;48.184;11.268;2023-04-08T05:23:25;95714.72;;;4.60;100.00
43878;BME280;29815;48.184;11.268;2023-04-08T05:25:55;95715.63;;;4.66;100.00
43878;BME280;29815;48.184;11.268;2023-04-08T05:28:24;95716.72;;;4.65;100.00
43878;BME280;29815;48.184;11.268;2023-04-08T05:30:54;95710.44;;;4.71;100.00
43878;BME280;29815;48.184;11.268;2023-04-08T05:33:23;95714.84;;;4.77;100.00
43878;BME280;29815;48.184;11.268;2023-04-08T05:35:54;95720.91;;;4.84;100.00
43878;BME280;29815;48.184;11.268;2023-04-08T05:38:24;95718.13;;;4.91;100.00
43878;BME280;29815;48.184;11.268;2023-04-08T05:40:53;95708.16;;;4.98;100.00
43878;BME280;29815;48.184;11.268;2023-04-08T05:43:23;95715.69;;;5.01;100.00
43878;BME280;29815;48.184;11.268;2023-04-08T05:45:53;95716.63;;;5.06;100.00
43878;BME280;29815;48.184;11.268;2023-04-08T05:48:22;95715.84;;;5.18;100.00
43878;BME280;29815;48.184;11.268;2023-04-08T05:50:52;95722.53;;;5.20;100.00
43878;BME280;29815;48.184;11.268;2023-04-08T05:53:22;95720.00;;;5.25;100.00
43878;BME280;29815;48.184;11.268;2023-04-08T05:55:53;95724.63;;;5.30;100.00
43878;BME280;29815;48.184;11.268;2023-04-08T05:58:22;95727.06;;;5.31;100.00
43878;BME280;29815;48.184;11.268;2023-04-08T06:00:52;95726.63;;;5.34;100.00
43878;BME280;29815;48.184;11.268;2023-04-08T06:03:22;95730.22;;;5.40;100.00
43878;BME280;29815;48.184;11.268;2023-04-08T06:05:54;95729.88;;;5.36;100.00
43878;BME280;29815;48.184;11.268;2023-04-08T06:08:23;95725.94;;;5.39;100.00
43878;BME280;29815;48.184;11.268;2023-04-08T06:10:53;95730.66;;;5.49;100.00
43878;BME280;29815;48.184;11.268;2023-04-08T06:13:22;95735.28;;;5.53;100.00
43878;BME280;29815;48.184;11.268;2023-04-08T06:15:52;95740.88;;;5.52;100.00
43878;BME280;29815;48.184;11.268;2023-04-08T06:18:22;95735.53;;;5.52;100.00
43878;BME280;29815;48.184;11.268;2023-04-08T06:20:51;95740.53;;;5.60;100.00
43878;BME280;29815;48.184;11.268;2023-04-08T06:23:22;95750.63;;;5.58;100.00
43878;BME280;29815;48.184;11.268;2023-04-08T06:25:52;95743.31;;;5.53;100.00
43878;BME280;29815;48.184;11.268;2023-04-08T06:28:22;95746.22;;;5.52;100.00
43878;BME280;29815;48.184;11.268;2023-04-08T06:30:51;95746.66;;;5.49;100.00
43878;BME280;29815;48.184;11.268;2023-04-08T06:33:21;95751.91;;;5.43;100.00
43878;BME280;29815;48.184;11.268;2023-04-08T06:35:50;95749.13;;;5.38;100.00
43878;BME280;29815;48.184;11.268;2023-04-08T06:38:21;95747.28;;;5.39;100.00
43878;BME280;29815;48.184;11.268;2023-04-08T06:40:51;95753.66;;;5.38;100.00
43878;BME280;29815;48.184;11.268;2023-04-08T06:43:20;95755.28;;;5.39;100.00
43878;BME280;29815;48.184;11.268;2023-04-08T06:45:50;95762.00;;;5.41;100.00
43878;BME280;29815;48.184;11.268;2023-04-08T06:48:20;95762.47;;;5.38;100.00
43878;BME280;29815;48.184;11.268;2023-04-08T06:50:50;95757.50;;;5.42;100.00
43878;BME280;29815;48.184;11.268;2023-04-08T06:53:22;95760.75;;;5.44;100.00
43878;BME280;29815;48.184;11.268;2023-04-08T06:55:52;95758.66;;;5.46;100.00
43878;BME280;29815;48.184;11.268;2023-04-08T06:58:22;95768.53;;;5.46;100.00
43878;BME280;29815;48.184;11.268;2023-04-08T07:00:53;95767.69;;;5.45;100.00
43878;BME280;29815;48.184;11.268;2023-04-08T07:03:23;95767.78;;;5.50;100.00
43878;BME280;29815;48.184;11.268;2023-04-08T07:05:53;95772.66;;;5.53;100.00
43878;BME280;29815;48.184;11.268;2023-04-08T07:08:24;95773.50;;;5.54;100.00
43878;BME280;29815;48.184;11.268;2023-04-08T07:10:54;95773.03;;;5.57;100.00
43878;BME280;29815;48.184;11.268;2023-04-08T07:13:23;95775.47;;;5.58;100.00
43878;BME280;29815;48.184;11.268;2023-04-08T07:15:53;95782.66;;;5.58;100.00
43878;BME280;29815;48.184;11.268;2023-04-08T07:18:23;95784.63;;;5.62;100.00
43878;BME280;29815;48.184;11.268;2023-04-08T07:20:53;95791.47;;;5.58;100.00
43878;BME280;29815;48.184;11.268;2023-04-08T07:23:24;95787.66;;;5.54;100.00
43878;BME280;29815;48.184;11.268;2023-04-08T07:25:54;95793.00;;;5.54;100.00
43878;BME280;29815;48.184;11.268;2023-04-08T07:28:23;95797.97;;;5.51;100.00
43878;BME280;29815;48.184;11.268;2023-04-08T07:30:53;95797.28;;;5.55;100.00
43878;BME280;29815;48.184;11.268;2023-04-08T07:33:22;95794.72;;;5.49;100.00
43878;BME280;29815;48.184;11.268;2023-04-08T07:35:53;95796.47;;;5.55;100.00
43878;BME280;29815;48.184;11.268;2023-04-08T07:38:24;95795.78;;;5.59;100.00
43878;BME280;29815;48.184;11.268;2023-04-08T07:40:54;95800.31;;;5.59;100.00
43878;BME280;29815;48.184;11.268;2023-04-08T07:43:24;95800.31;;;5.59;100.00
43878;BME280;29815;48.184;11.268;2023-04-08T07:45:58;95803.91;;;5.64;100.00
43878;BME280;29815;48.184;11.268;2023-04-08T07:48:30;95806.25;;;5.72;100.00
43878;BME280;29815;48.184;11.268;2023-04-08T07:51:02;95807.28;;;5.71;100.00
43878;BME280;29815;48.184;11.268;2023-04-08T07:53:39;95814.94;;;5.68;100.00
43878;BME280;29815;48.184;11.268;2023-04-08T07:56:14;95815.28;;;5.71;100.00
43878;BME280;29815;48.184;11.268;2023-04-08T07:58:45;95813.31;;;5.67;100.00
43878;BME280;29815;48.184;11.268;2023-04-08T08:01:19;95815.88;;;5.73;100.00
43878;BME280;29815;48.184;11.268;2023-04-08T08:03:51;95820.41;;;5.73;100.00
43878;BME280;29815;48.184;11.268;2023-04-08T08:06:21;95819.69;;;5.77;100.00
43878;BME280;29815;48.184;11.268;2023-04-08T08:08:52;95818.75;;;5.84;100.00
43878;BME280;29815;48.184;11.268;2023-04-08T08:11:22;95812.28;;;5.91;100.00
43878;BME280;29815;48.184;11.268;2023-04-08T08:13:53;95816.94;;;5.96;100.00
43878;BME280;29815;48.184;11.268;2023-04-08T08:16:27;95824.78;;;6.02;100.00
43878;BME280;29815;48.184;11.268;2023-04-08T08:18:57;95826.19;;;6.05;100.00
43878;BME280;29815;48.184;11.268;2023-04-08T08:21:26;95823.44;;;6.00;100.00
43878;BME280;29815;48.184;11.268;2023-04-08T08:23:57;95812.75;;;6.00;100.00
43878;BME280;29815;48.184;11.268;2023-04-08T08:26:27;95823.97;;;6.14;100.00
43878;BME280;29815;48.184;11.268;2023-04-08T08:28:57;95824.19;;;6.24;100.00
43878;BME280;29815;48.184;11.268;2023-04-08T08:31:26;95816.78;;;6.14;100.00
43878;BME280;29815;48.184;11.268;2023-04-08T08:33:56;95823.50;;;6.28;100.00
43878;BME280;29815;48.184;11.268;2023-04-08T08:36:25;95836.59;;;6.30;100.00
43878;BME280;29815;48.184;11.268;2023-04-08T08:38:56;95837.00;;;6.22;100.00
43878;BME280;29815;48.184;11.268;2023-04-08T08:41:26;95841.97;;;6.18;100.00
43878;BME280;29815;48.184;11.268;2023-04-08T08:43:56;95836.41;;;6.08;100.00
43878;BME280;29815;48.184;11.268;2023-04-08T08:46:28;95836.06;;;6.04;100.00
43878;BME280;29815;48.184;11.268;2023-04-08T08:48:57;95849.34;;;5.99;100.00
43878;BME280;29815;48.184;11.268;2023-04-08T08:51:28;95855.59;;;5.93;100.00
43878;BME280;29815;48.184;11.268;2023-04-08T08:54:03;95859.41;;;5.86;100.00
43878;BME280;29815;48.184;11.268;2023-04-08T08:56:32;95859.28;;;5.81;100.00
43878;BME280;29815;48.184;11.268;2023-04-08T08:59:02;95860.69;;;5.71;100.00
43878;BME280;29815;48.184;11.268;2023-04-08T09:01:33;95866.25;;;5.70;100.00
43878;BME280;29815;48.184;11.268;2023-04-08T09:04:12;95856.59;;;5.57;100.00
43878;BME280;29815;48.184;11.268;2023-04-08T09:06:45;95864.63;;;5.46;100.00
43878;BME280;29815;48.184;11.268;2023-04-08T09:09:18;95864.47;;;5.52;100.00
43878;BME280;29815;48.184;11.268;2023-04-08T09:11:48;95868.19;;;5.39;100.00
43878;BME280;29815;48.184;11.268;2023-04-08T09:14:19;95866.06;;;5.30;100.00
43878;BME280;29815;48.184;11.268;2023-04-08T09:16:50;95870.22;;;5.14;100.00
43878;BME280;29815;48.184;11.268;2023-04-08T09:19:20;95872.16;;;5.07;100.00
43878;BME280;29815;48.184;11.268;2023-04-08T09:22:06;95871.66;;;4.98;100.00
43878;BME280;29815;48.184;11.268;2023-04-08T09:24:38;95872.94;;;4.96;100.00
43878;BME280;29815;48.184;11.268;2023-04-08T09:27:08;95879.81;;;5.03;100.00
43878;BME280;29815;48.184;11.268;2023-04-08T09:29:37;95874.34;;;4.98;100.00
43878;BME280;29815;48.184;11.268;2023-04-08T09:32:08;95872.13;;;4.95;100.00
43878;BME280;29815;48.184;11.268;2023-04-08T09:34:37;95877.13;;;4.92;100.00
43878;BME280;29815;48.184;11.268;2023-04-08T09:37:07;95872.72;;;4.97;100.00
43878;BME280;29815;48.184;11.268;2023-04-08T09:39:37;95876.25;;;5.09;100.00
43878;BME280;29815;48.184;11.268;2023-04-08T09:42:08;95883.78;;;5.13;100.00
43878;BME280;29815;48.184;11.268;2023-04-08T09:44:41;95877.06;;;5.10;100.00
43878;BME280;29815;48.184;11.268;2023-04-08T09:47:18;95876.69;;;5.06;100.00
43878;BME280;29815;48.184;11.268;2023-04-08T09:49:57;95877.63;;;5.12;100.00
43878;BME280;29815;48.184;11.268;2023-04-08T09:52:35;95879.63;;;5.17;100.00
43878;BME280;29815;48.184;11.268;2023-04-08T09:55:11;95883.44;;;5.09;100.00
43878;BME280;29815;48.184;11.268;2023-04-08T09:57:49;95878.19;;;5.02;100.00
43878;BME280;29815;48.184;11.268;2023-04-08T10:00:27;95881.66;;;5.03;100.00
43878;BME280;29815;48.184;11.268;2023-04-08T10:03:06;95874.53;;;5.15;100.00
43878;BME280;29815;48.184;11.268;2023-04-08T10:05:40;95872.09;;;5.14;100.00
43878;BME280;29815;48.184;11.268;2023-04-08T10:08:12;95876.25;;;5.21;100.00
43878;BME280;29815;48.184;11.268;2023-04-08T10:10:44;95876.06;;;5.34;100.00
43878;BME280;29815;48.184;11.268;2023-04-08T10:13:15;95867.38;;;5.51;100.00
43878;BME280;29815;48.184;11.268;2023-04-08T10:15:45;95861.59;;;5.65;100.00
43878;BME280;29815;48.184;11.268;2023-04-08T10:18:30;95859.16;;;5.75;100.00
43878;BME280;29815;48.184;11.268;2023-04-08T10:21:04;95849.19;;;5.83;100.00
43878;BME280;29815;48.184;11.268;2023-04-08T10:23:58;95853.25;;;6.08;100.00
43878;BME280;29815;48.184;11.268;2023-04-08T10:26:39;95843.38;;;6.09;100.00
43878;BME280;29815;48.184;11.268;2023-04-08T10:29:42;95845.25;;;6.20;100.00
43878;BME280;29815;48.184;11.268;2023-04-08T10:32:28;95852.50;;;6.48;100.00
43878;BME280;29815;48.184;11.268;2023-04-08T10:34:58;95846.06;;;6.61;100.00
43878;BME280;29815;48.184;11.268;2023-04-08T10:37:27;95854.25;;;6.54;100.00
43878;BME280;29815;48.184;11.268;2023-04-08T10:39:57;95851.41;;;6.61;100.00
43878;BME280;29815;48.184;11.268;2023-04-08T10:42:28;95858.28;;;6.85;100.00
43878;BME280;29815;48.184;11.268;2023-04-08T10:45:01;95851.06;;;6.86;100.00
43878;BME280;29815;48.184;11.268;2023-04-08T10:47:31;95848.91;;;6.83;100.00
43878;BME280;29815;48.184;11.268;2023-04-08T10:50:12;95848.63;;;6.84;100.00
43878;BME280;29815;48.184;11.268;2023-04-08T10:52:46;95859.28;;;6.67;100.00
43878;BME280;29815;48.184;11.268;2023-04-08T10:55:15;95860.41;;;6.43;100.00
43878;BME280;29815;48.184;11.268;2023-04-08T10:57:47;95856.63;;;6.27;100.00
43878;BME280;29815;48.184;11.268;2023-04-08T11:00:18;95855.69;;;6.10;100.00
43878;BME280;29815;48.184;11.268;2023-04-08T11:02:48;95852.91;;;6.05;100.00
43878;BME280;29815;48.184;11.268;2023-04-08T11:05:21;95855.47;;;6.11;100.00
43878;BME280;29815;48.184;11.268;2023-04-08T11:07:51;95857.13;;;6.01;100.00
43878;BME280;29815;48.184;11.268;2023-04-08T11:10:21;95855.56;;;6.05;100.00
43878;BME280;29815;48.184;11.268;2023-04-08T11:12:53;95849.19;;;6.06;100.00
43878;BME280;29815;48.184;11.268;2023-04-08T11:15:24;95853.50;;;6.07;100.00
43878;BME280;29815;48.184;11.268;2023-04-08T11:17:54;95853.72;;;6.05;100.00
43878;BME280;29815;48.184;11.268;2023-04-08T11:20:24;95855.13;;;6.08;100.00
43878;BME280;29815;48.184;11.268;2023-04-08T11:22:54;95862.91;;;6.09;100.00
43878;BME280;29815;48.184;11.268;2023-04-08T11:25:23;95863.72;;;6.10;100.00
43878;BME280;29815;48.184;11.268;2023-04-08T11:27:54;95859.88;;;6.06;100.00
43878;BME280;29815;48.184;11.268;2023-04-08T11:30:24;95857.78;;;6.08;100.00
43878;BME280;29815;48.184;11.268;2023-04-08T11:32:53;95859.41;;;6.09;100.00
43878;BME280;29815;48.184;11.268;2023-04-08T11:35:27;95864.28;;;6.12;100.00
43878;BME280;29815;48.184;11.268;2023-04-08T11:37:58;95858.84;;;6.07;100.00
43878;BME280;29815;48.184;11.268;2023-04-08T11:40:28;95865.00;;;6.07;100.00
43878;BME280;29815;48.184;11.268;2023-04-08T11:42:59;95867.00;;;6.00;100.00
43878;BME280;29815;48.184;11.268;2023-04-08T11:45:28;95867.09;;;6.05;100.00
43878;BME280;29815;48.184;11.268;2023-04-08T11:47:58;95864.66;;;5.92;100.00
43878;BME280;29815;48.184;11.268;2023-04-08T11:50:31;95869.19;;;5.92;100.00
43878;BME280;29815;48.184;11.268;2023-04-08T11:53:00;95855.59;;;5.93;100.00
43878;BME280;29815;48.184;11.268;2023-04-08T11:55:31;95860.47;;;5.96;100.00
43878;BME280;29815;48.184;11.268;2023-04-08T11:58:03;95871.41;;;5.95;100.00
43878;BME280;29815;48.184;11.268;2023-04-08T12:00:34;95864.31;;;5.89;100.00
43878;BME280;29815;48.184;11.268;2023-04-08T12:03:05;95870.47;;;6.01;100.00
43878;BME280;29815;48.184;11.268;2023-04-08T12:05:35;95868.84;;;6.00;100.00
43878;BME280;29815;48.184;11.268;2023-04-08T12:08:05;95873.03;;;5.96;100.00
43878;BME280;29815;48.184;11.268;2023-04-08T12:10:34;95881.16;;;5.89;100.00
43878;BME280;29815;48.184;11.268;2023-04-08T12:13:05;95877.50;;;5.84;100.00
43878;BME280;29815;48.184;11.268;2023-04-08T12:15:35;95877.50;;;5.84;100.00
43878;BME280;29815;48.184;11.268;2023-04-08T12:18:05;95881.22;;;5.83;100.00
43878;BME280;29815;48.184;11.268;2023-04-08T12:20:34;95882.50;;;5.80;100.00
43878;BME280;29815;48.184;11.268;2023-04-08T12:23:04;95884.50;;;5.73;100.00
43878;BME280;29815;48.184;11.268;2023-04-08T12:25:35;95887.03;;;5.68;100.00
43878;BME280;29815;48.184;11.268;2023-04-08T12:28:05;95893.06;;;5.63;100.00
43878;BME280;29815;48.184;11.268;2023-04-08T12:30:36;95897.22;;;5.59;100.00
43878;BME280;29815;48.184;11.268;2023-04-08T12:33:06;95892.34;;;5.56;100.00
43878;BME280;29815;48.184;11.268;2023-04-08T12:35:35;95900.59;;;5.55;100.00
43878;BME280;29815;48.184;11.268;2023-04-08T12:38:05;95902.09;;;5.51;100.00
43878;BME280;29815;48.184;11.268;2023-04-08T12:40:34;95900.69;;;5.48;100.00
